Terminal Aerodrome Forecast
Issued by NWS Charleston, WV

Current Version | Previous Version | Text Only | Print | Product List | Glossary Off
Versions: 1 2 3 4 5 6 7 8 9 10 11 12 13 14 15 16 17 18 19 20 21 22 23 24

000
FTUS41 KRLX 300900 AAA
TAFEKN
TAF AMD
KEKN 300902Z 3009/3106 00000KT P6SM SKC
     FM301100 00000KT 4SM BR BKN060
     FM301200 00000KT P6SM BKN070
     FM301700 25004KT P6SM SCT045=

USA.gov is the U.S. government's official web portal to all federal, state and local government web resources and services.